Tuesday, November 13, 2018, 7:27 PM EST
Back to Local

KRUT, Rutland, Rutland-southern Vermont Regional Airport

Location: North Clarendon, VT, United States Lat: 43.533
Local Time: 7:27 PM EST ( 0:27 GMT) Lon: -72.95
Time Zone: US/Eastern Elev: 787 ft

Show me the last for .
Show Decoded

2018-11-13 18:56 METAR KRUT 132356Z AUTO 30007G15KT 260V340 10SM SCT015 OVC025 02/01 A2989 RMK
                 AO2 SLP145 P0001 60003 T00170011 10017 20006 53005 FZRANO $ =
2018-11-13 17:56 METAR KRUT 132256Z AUTO 01005KT 4SM BR SCT003 BKN015 OVC060 01/00 A2988 RMK AO2
                 RAE23 SLP142 P0001 T00060000 FZRANO $ =
2018-11-13 17:20 METAR KRUT 132220Z AUTO 00000KT 8SM -RA OVC003 01/00 A2988 RMK AO2 P0001 FZRANO
                 $ =
2018-11-13 16:56 METAR KRUT 132156Z AUTO 35003KT 10SM -RA OVC005 01/00 A2988 RMK AO2 RAB20 CIG
                 003V007 SLP141 P0001 T00060000 FZRANO $ =
2018-11-13 16:11 METAR KRUT 132111Z AUTO 01004KT 10SM OVC005 01/00 A2988 RMK AO2 CIG 003V009
                 FZRANO $ =
2018-11-13 15:56 METAR KRUT 132056Z AUTO 33003KT 10SM OVC007 01/00 A2988 RMK AO2 RAB17E52 CIG
                 003V008 SLP140 P0000 60000 T00060000 55001 FZRANO $ =
2018-11-13 15:32 METAR KRUT 132032Z AUTO 33003KT 10SM -RA OVC005 01/00 A2986 RMK AO2 RAB17 CIG
                 003V008 P0000 FZRANO $ =
2018-11-13 14:56 METAR KRUT 131956Z AUTO 34005KT 10SM OVC003 01/00 A2987 RMK AO2
                 RAB1858E01UPB23E25SNE23 SLP136 P0000 T00060000 FZRANO $ =
2018-11-13 13:56 METAR KRUT 131856Z AUTO 36008KT 7SM -SN OVC003 01/00 A2987 RMK AO2
                 RAE01UPB01E22SNB22 CIG 002V005 SLP135 P0000 T00060000 FZRANO $ =
2018-11-13 13:52 METAR KRUT 131852Z AUTO 35007KT 3SM -SN BR OVC003 01/00 A2987 RMK AO2
                 RAE01UPB01E22SNB22 P0000 FZRANO $ =
2018-11-13 13:50 METAR KRUT 131850Z AUTO 34007KT 1 3/4SM -SN BR OVC003 01/00 A2988 RMK AO2
                 RAE01UPB01E22SNB22 P0000 FZRANO $ =
2018-11-13 13:47 METAR KRUT 131847Z AUTO 35006KT 3/4SM -SN BR OVC003 01/00 A2988 RMK AO2
                 RAE01UPB01E22SNB22 P0000 FZRANO $ =
2018-11-13 13:21 METAR KRUT 131821Z AUTO 31004KT 1/4SM UP FG OVC003 01/00 A2988 RMK AO2
                 RAE01UPB01 CIG 002V006 P0000 FZRANO $ =
2018-11-13 13:08 METAR KRUT 131808Z AUTO 31004KT 1/2SM UP FG OVC003 01/01 A2987 RMK AO2
                 RAE01UPB01 CIG 002V006 P0000 FZRANO $ =
2018-11-13 13:06 METAR KRUT 131806Z AUTO 32003KT 3/4SM UP BR OVC005 01/01 A2987 RMK AO2
                 RAE01UPB01 CIG 002V006 P0000 FZRANO $ =
2018-11-13 12:56 METAR KRUT 131756Z AUTO 00000KT 1 3/4SM -RA BR OVC005 01/01 A2988 RMK AO2
                 UPE1658B42E50RAB1658E28B50 SLP139 P0000 60002 T00110006 56042 FZRANO $ =
2018-11-13 12:53 METAR KRUT 131753Z AUTO 00000KT 1 3/4SM -RA BR BKN005 OVC009 01/01 A2988 RMK AO2
                 UPE1658B42E50RAB1658E28B50 P0000 FZRANO $ =
2018-11-13 12:47 METAR KRUT 131747Z AUTO 00000KT 1 3/4SM UP BR OVC007 01/01 A2988 RMK AO2
                 UPE1658B42RAB1658E28 CIG 005V010 P0000 FZRANO $ =
2018-11-13 12:25 METAR KRUT 131725Z AUTO 00000KT 7SM -RA FEW002 BKN007 OVC031 01/00 A2990 RMK AO2
                 UPE1658RAB1658 P0000 FZRANO $ =
2018-11-13 12:12 METAR KRUT 131712Z AUTO 12004KT 2 1/2SM -RA BR SCT002 BKN007 OVC031 01/00 A2990
                 RMK AO2 UPE1658RAB1658 P0000 FZRANO $ =
2018-11-13 12:10 METAR KRUT 131710Z AUTO 13003KT 1 3/4SM -RA BR FEW002 BKN012 OVC031 01/00 A2990
                 RMK AO2 UPE1658RAB1658 P0000 FZRANO $ =
2018-11-13 12:01 METAR KRUT 131701Z AUTO 00000KT 1 3/4SM -RA BR FEW013 OVC031 01/01 A2991 RMK AO2
                 VIS 3/4V5 UPE1658RAB1658 P0000 FZRANO $ =
2018-11-13 11:56 METAR KRUT 131656Z AUTO 00000KT 4SM UP BR FEW013 BKN033 OVC046 01/00 A2992 RMK
                 AO2 SLP153 P0001 T00060000 FZRANO $ =
2018-11-13 11:50 METAR KRUT 131650Z AUTO 00000KT 3SM UP BR FEW004 BKN033 OVC046 01/00 A2992 RMK
                 AO2 P0001 FZRANO $ =
2018-11-13 11:41 METAR KRUT 131641Z AUTO 00000KT 2SM UP BR SCT004 BKN013 OVC046 01/00 A2992 RMK
                 AO2 P0001 FZRANO $ =
2018-11-13 11:34 METAR KRUT 131634Z AUTO 00000KT 1 3/4SM UP BR BKN004 OVC046 01/00 A2992 RMK AO2
                 VIS 1V3 P0001 FZRANO $ =
2018-11-13 11:29 METAR KRUT 131629Z AUTO 00000KT 3SM UP BR BKN004 OVC046 01/00 A2992 RMK AO2
                 PRESFR P0000 FZRANO $ =
2018-11-13 11:13 METAR KRUT 131613Z AUTO 00000KT 2 1/2SM UP BR BKN006 BKN035 OVC060 01/00 A2994
                 RMK AO2 P0000 FZRANO $ =
2018-11-13 11:08 METAR KRUT 131608Z AUTO 00000KT 1 1/4SM UP BR SCT006 BKN050 OVC060 01/00 A2994
                 RMK AO2 P0000 FZRANO $ =
2018-11-13 11:05 METAR KRUT 131605Z AUTO 00000KT 3/4SM UP BR SCT006 BKN050 OVC060 01/00 A2995 RMK
                 AO2 P0000 FZRANO $ =
2018-11-13 10:56 METAR KRUT 131556Z AUTO 00000KT 1/4SM UP FG SCT006 BKN035 OVC050 01/00 A2995 RMK
                 AO2 UPB42SNE42 SLP165 P0000 T00060000 FZRANO $ =
2018-11-13 10:22 METAR KRUT 131522Z AUTO 00000KT 1/2SM -SN FG OVC008 01/00 A2999 RMK AO2 CIG
                 004V010 P0000 FZRANO $ =
2018-11-13 10:10 METAR KRUT 131510Z AUTO 00000KT 3/4SM -SN BR OVC006 01/00 A3000 RMK AO2 CIG
                 004V010 P0000 FZRANO $ =
2018-11-13 09:56 METAR KRUT 131456Z AUTO 00000KT 1/2SM -SN FG BKN006 OVC009 01/00 A3001 RMK AO2
                 UPE01SNB01 CIG 004V008 SLP183 P0000 60001 T00060000 58028 FZRANO $ =
2018-11-13 09:47 METAR KRUT 131447Z AUTO 00000KT 1/2SM -SN FG BKN006 OVC017 00/00 A3000 RMK AO2
                 UPE01SNB01 CIG 003V009 P0000 FZRANO $ =
2018-11-13 09:30 METAR KRUT 131430Z AUTO 00000KT 1/4SM -SN FG OVC004 00/00 A3002 RMK AO2
                 UPE01SNB01 P0000 FZRANO $ =
2018-11-13 09:13 METAR KRUT 131413Z AUTO 00000KT 3/4SM -SN BR OVC004 01/00 A3003 RMK AO2
                 UPE01SNB01 P0000 FZRANO $ =
2018-11-13 08:56 METAR KRUT 131356Z AUTO 00000KT 3/4SM UP BR OVC002 00/00 A3004 RMK AO2
                 UPB13SNE13B41E52 CIG 002V006 SLP195 P0000 T00000000 FZRANO $ =
2018-11-13 08:29 METAR KRUT 131329Z AUTO 00000KT 3/4SM UP BKN002 OVC028 A3005 RMK AO2 UPB13SNE13
                 P0000 FZRANO $ =
2018-11-13 08:13 METAR KRUT 131313Z AUTO 26003KT 1/2SM UP FEW002 SCT011 OVC028 A3007 RMK AO2
                 UPB13SNE13 P0000 FZRANO $ =
2018-11-13 08:09 METAR KRUT 131309Z AUTO 28003KT 1SM -SN FEW002 SCT011 OVC028 A3006 RMK AO2 P0000
                 FZRANO $ =
2018-11-13 07:56 METAR KRUT 131256Z AUTO 00000KT 1 1/4SM -SN BR FEW002 SCT011 OVC026 00/M01 A3007
                 RMK AO2 UPE09SNB09 SLP206 P0001 T00001006 FZRANO $ =
2018-11-13 07:54 METAR KRUT 131254Z AUTO 00000KT 1 1/4SM -SN BR FEW002 SCT009 OVC026 00/M01 A3007
                 RMK AO2 UPE09SNB09 P0001 FZRANO $ =
2018-11-13 07:46 METAR KRUT 131246Z AUTO 34003KT 1SM -SN BR SCT002 BKN009 OVC026 00/M01 A3008 RMK
                 AO2 UPE09SNB09 P0000 FZRANO $ =
2018-11-13 07:41 METAR KRUT 131241Z AUTO 35003KT 3/4SM -SN BR BKN002 OVC026 00/M01 A3008 RMK AO2
                 UPE09SNB09 CIG 001V006 P0000 FZRANO $ =
2018-11-13 07:14 METAR KRUT 131214Z AUTO 01004KT 1/4SM -SN FG BKN002 OVC022 00/M01 A3009 RMK AO2
                 UPE09SNB09 CIG 001V006 P0000 FZRANO $ =
2018-11-13 07:06 METAR KRUT 131206Z AUTO 01004KT 1/2SM UP FG SCT004 OVC022 00/M01 A3009 RMK AO2
                 P0000 FZRANO $ =
2018-11-13 06:56 METAR KRUT 131156Z AUTO 33003KT 3/4SM UP BR BKN004 OVC022 00/M01 A3009 RMK AO2
                 UPB34SNE34 CIG 001V006 SLP213 P0001 60009 70009 T00001006 10039 20000 56030
                 FZRANO $ =
2018-11-13 06:39 METAR KRUT 131139Z AUTO 00000KT 3/4SM UP BR BKN004 OVC027 00/M01 A3008 RMK AO2
                 VIS 1/2V2 1/2 UPB34SNE34 P0001 FZRANO $ =
2018-11-13 06:34 METAR KRUT 131134Z AUTO 00000KT 1 3/4SM UP BR BKN004 OVC027 00/M01 A3008 RMK AO2
                 UPB34SNE34 P0001 FZRANO $ =
2018-11-13 06:26 METAR KRUT 131126Z AUTO 00000KT 3SM -SN BR BKN004 OVC027 00/M01 A3009 RMK AO2
                 P0000 FZRANO $ =
2018-11-13 06:08 METAR KRUT 131108Z AUTO 00000KT 1 3/4SM -SN BR BKN004 BKN008 OVC029 00/M01 A3010
                 RMK AO2 CIG 001V006 P0000 FZRANO $ =
2018-11-13 05:56 METAR KRUT 131056Z AUTO 00000KT 1 3/4SM -SN BR SCT002 BKN008 OVC029 00/M01 A3011
                 RMK AO2 SLP219 P0002 T00001006 FZRANO $ =
2018-11-13 05:52 METAR KRUT 131052Z AUTO 00000KT 1 1/2SM -SN BR SCT002 BKN008 OVC029 00/M01 A3011
                 RMK AO2 P0002 FZRANO $ =
2018-11-13 05:33 METAR KRUT 131033Z AUTO 00000KT 1 3/4SM -SN BR FEW008 BKN016 OVC021 01/00 A3012
                 RMK AO2 VIS 1V3 P0002 FZRANO $ =
2018-11-13 04:56 METAR KRUT 130956Z AUTO 15003KT 5SM -SN BR FEW006 BKN016 OVC021 01/01 A3015 RMK
                 AO2 SLP231 P0003 T00110006 FZRANO $ =
2018-11-13 04:37 METAR KRUT 130937Z AUTO 16004KT 4SM -SN BR FEW006 OVC021 01/00 A3015 RMK AO2
                 PRESFR P0002 FZRANO $ =
2018-11-13 03:56 METAR KRUT 130856Z AUTO 16003KT 4SM -SN BR FEW011 OVC017 01/00 A3018 RMK AO2
                 RAE0757UPB13E27SNB0757E13B27 SLP242 P0003 60003 T00060000 58013 FZRANO $ =
2018-11-13 02:56 METAR KRUT 130756Z AUTO 13007KT 6SM -RA BR BKN017 OVC029 02/00 A3022 RMK AO2
                 RAB35 SLP258 P0000 T00170000 FZRANO $ =
2018-11-13 02:50 METAR KRUT 130750Z AUTO 12008KT 9SM RA BKN017 BKN029 OVC055 02/M01 A3023 RMK AO2
                 RAB35 P0000 FZRANO $ =
2018-11-13 01:56 METAR KRUT 130656Z AUTO 13007KT 10SM OVC080 04/M02 A3022 RMK AO2 SLP257
                 T00391017 $ =
2018-11-13 00:56 METAR KRUT 130556Z AUTO 12005KT 10SM SCT041 BKN047 OVC060 03/M03 A3026 RMK AO2
                 RAB13E50 SLP271 P0000 60000 T00281033 10039 20017 56015 $ =
2018-11-12 23:56 METAR KRUT 130456Z AUTO 20004KT 10SM FEW027 BKN037 OVC050 03/M03 A3028 RMK AO2
                 SLP277 T00281033 400611039 $ =
2018-11-12 22:56 METAR KRUT 130356Z AUTO 12006KT 10SM OVC070 03/M04 A3029 RMK AO2 SLP280
                 T00281044 $ =
2018-11-12 21:56 METAR KRUT 130256Z AUTO 12008KT 10SM OVC060 03/M04 A3031 RMK AO2 SLP285
                 T00281044 56001 $ =
2018-11-12 20:56 METAR KRUT 130156Z AUTO 13006KT 10SM BKN070 OVC090 03/M05 A3031 RMK AO2 SLP288
                 T00281050 $ =

Support USWX by starting your Amazon purchase here.